Airfield :
LOGIN :

Register | Disclaimer

   EN    FR    IT 

 










Legend :    VFR   Marginal VFR   IFR   Intensive IFR   Very Intensive IFR
Visi :
Ceiling :
>= 8 km
>= 3000ft
5 to 8 km
1000 to 3000 ft
1500m to 5 km
500 to 1000 ft
800 to 1500m
200 to 500 ft
< 800m
< 200 ft
Symbols :   Thunderstorms  Fog  Heavy snow  Heavy precipitations  Wind > 20 kt
SIGMETs :     Misc.  Thunderstorms  Icing  Turbulence  Mountain Waves  Volcanic Ashes






- Airport Elevation : 353 ft
- IATA code : ZAG


LDZA - Zagreb Pleso

CURRENT METAR :
  • 241700Z 23003KT 190V280 CAVOK 28/14 Q1006 NOSIG

EXPIRED METARs :
  • 241630Z 24004KT 210V270 CAVOK 28/14 Q1006 NOSIG
  • 241600Z 24007KT 200V260 CAVOK 28/14 Q1006 NOSIG
  • 241530Z 23006KT 190V260 CAVOK 28/15 Q1006 NOSIG
  • 241500Z 22004KT 160V270 CAVOK 29/16 Q1006 NOSIG
  • 241430Z 23006KT 190V260 CAVOK 28/15 Q1006 NOSIG

TAF TAF LDZA
Valid from the 24 at 18:00 until the 25 at 18:00 UTC


241725Z 2418/2518 VRB02KT CAVOK TX29/2514Z TN16/2504Z
PROB30
TEMPO 2511/2514 FEW040TCU
PROB40
TEMPO 2514/2518 32015G30KT TSRA SCT035CB BKN040
BECMG 2516/2518 03010KT
ATIS : +385 1 6-259-214



MET'MAP, your aeronautical weather chart ! - Copyright ORBIFLY December 2007 - Disclaimer

ORBIFLY MET'MAP TEAM :

Programming & Development : Alexandra Zaïnal
Original concept : Baudouin d'Aumeries
Technical & hardware support : Manuel Goepfert
Assistance : Marc-Olivier Méhu

Contact : metmap@orbifly.com




SOURCES & CREDITS :

   NOAA